Time;durP1;ratioP1;P1;durP2;ratioP2;P2;SDS_P1;SDS_P2;PMS_P1;PMS_P2;Temp;Humidity;BMP_temperature;BMP_pressure;BME280_temperature;BME280_humidity;BME280_pressure;Samples;Min_cycle;Max_cycle;Signal;HPM_P1;HPM_P2
2022/01/16 00:04:06;;;;;;;19.13;15.63;;;;;;;;;;5034834;28;20235;-54
2022/01/16 00:06:32;;;;;;;21.17;15.13;;;;;;;;;;5030817;28;20314;-54
2022/01/16 00:08:58;;;;;;;19.23;15.40;;;;;;;;;;5030043;28;20230;-53
2022/01/16 00:11:24;;;;;;;19.57;15.47;;;;;;;;;;5030368;28;20239;-54
2022/01/16 00:13:51;;;;;;;21.03;15.37;;;;;;;;;;5025174;28;20245;-53
2022/01/16 00:16:17;;;;;;;20.30;15.63;;;;;;;;;;5029588;28;20264;-54
2022/01/16 00:18:52;;;;;;;19.53;14.87;;;;;;;;;;5032710;28;20235;-54
2022/01/16 00:21:19;;;;;;;18.83;14.50;;;;;;;;;;5037970;28;20743;-54
2022/01/16 00:23:44;;;;;;;19.70;15.70;;;;;;;;;;5030804;28;20233;-54
2022/01/16 00:26:11;;;;;;;20.10;16.27;;;;;;;;;;5025908;28;20236;-53
2022/01/16 00:28:37;;;;;;;20.47;15.80;;;;;;;;;;5037353;28;20228;-54
2022/01/16 00:31:02;;;;;;;19.67;15.87;;;;;;;;;;5036262;28;20624;-54
2022/01/16 00:33:28;;;;;;;18.83;15.23;;;;;;;;;;5038084;28;20220;-54
2022/01/16 00:35:54;;;;;;;21.67;17.30;;;;;;;;;;5033204;28;20232;-54
2022/01/16 00:38:20;;;;;;;22.13;17.07;;;;;;;;;;5037967;28;21043;-54
2022/01/16 00:40:46;;;;;;;20.43;16.50;;;;;;;;;;5035970;28;20620;-53
2022/01/16 00:43:13;;;;;;;19.27;15.67;;;;;;;;;;5026551;28;20239;-53
2022/01/16 00:45:39;;;;;;;21.87;16.70;;;;;;;;;;5040242;28;20234;-54
2022/01/16 00:48:05;;;;;;;19.83;15.50;;;;;;;;;;5042705;28;20311;-53
2022/01/16 00:50:32;;;;;;;21.00;16.40;;;;;;;;;;5040968;28;20239;-54
2022/01/16 00:52:58;;;;;;;22.77;16.90;;;;;;;;;;5033845;28;20574;-54
2022/01/16 00:55:24;;;;;;;22.73;17.60;;;;;;;;;;5039730;28;20234;-54
2022/01/16 00:57:50;;;;;;;24.23;17.67;;;;;;;;;;5042665;28;20228;-53
2022/01/16 01:00:16;;;;;;;22.03;16.67;;;;;;;;;;5036143;28;20779;-54
2022/01/16 01:02:41;;;;;;;22.70;17.27;;;;;;;;;;5039464;28;20358;-54
2022/01/16 01:05:08;;;;;;;25.47;18.37;;;;;;;;;;5045533;28;20227;-54
2022/01/16 01:07:34;;;;;;;22.57;17.27;;;;;;;;;;5036146;28;20700;-54
2022/01/16 01:10:00;;;;;;;26.10;19.17;;;;;;;;;;5041791;28;21072;-54
2022/01/16 01:12:30;;;;;;;25.53;18.57;;;;;;;;;;5038163;28;20700;-52
2022/01/16 01:15:10;;;;;;;27.27;18.97;;;;;;;;;;5038608;28;20235;-54
2022/01/16 01:17:44;;;;;;;26.93;19.10;;;;;;;;;;5041151;28;20745;-53
2022/01/16 01:20:11;;;;;;;25.77;19.30;;;;;;;;;;5029406;28;20415;-54
2022/01/16 01:22:37;;;;;;;30.53;19.33;;;;;;;;;;5035553;28;20263;-54
2022/01/16 01:25:03;;;;;;;31.07;20.20;;;;;;;;;;5038362;28;20298;-54
2022/01/16 01:27:31;;;;;;;31.47;20.43;;;;;;;;;;5033167;28;20246;-54
2022/01/16 01:30:09;;;;;;;28.50;18.73;;;;;;;;;;5024582;28;20318;-54
2022/01/16 01:32:36;;;;;;;28.43;18.63;;;;;;;;;;5027690;28;20240;-53
2022/01/16 01:35:03;;;;;;;32.60;20.07;;;;;;;;;;5045965;28;20228;-54
2022/01/16 01:37:28;;;;;;;29.27;18.73;;;;;;;;;;5027128;28;20227;-54
2022/01/16 01:39:55;;;;;;;33.17;20.27;;;;;;;;;;5034706;28;20428;-54
2022/01/16 01:42:21;;;;;;;31.53;20.47;;;;;;;;;;5036072;28;20232;-54
2022/01/16 01:53:05;;;;;;;30.90;19.17;;;;;;;;;;5011006;28;20231;-54
2022/01/16 01:55:31;;;;;;;28.57;18.17;;;;;;;;;;5038706;28;20355;-54
2022/01/16 01:57:57;;;;;;;29.10;19.73;;;;;;;;;;5040405;28;21087;-54
2022/01/16 02:00:23;;;;;;;28.20;18.60;;;;;;;;;;5044879;28;20255;-53
2022/01/16 02:05:34;;;;;;;27.77;18.57;;;;;;;;;;5050765;28;20974;-53
2022/01/16 02:08:00;;;;;;;28.20;18.80;;;;;;;;;;5021859;28;20231;-54
2022/01/16 02:10:26;;;;;;;31.00;20.27;;;;;;;;;;5045752;28;20586;-54
2022/01/16 02:12:59;;;;;;;25.97;17.43;;;;;;;;;;5047278;28;20250;-53
2022/01/16 02:15:39;;;;;;;28.17;18.50;;;;;;;;;;5045204;28;20865;-54
2022/01/16 02:31:47;;;;;;;28.80;19.80;;;;;;;;;;5038899;28;20688;-54
2022/01/16 02:37:01;;;;;;;27.33;19.33;;;;;;;;;;5041938;28;20324;-54
2022/01/16 02:39:28;;;;;;;29.70;19.07;;;;;;;;;;5041219;28;20228;-54
2022/01/16 02:41:56;;;;;;;25.97;18.40;;;;;;;;;;5042433;28;20338;-53
2022/01/16 02:46:48;;;;;;;27.77;18.43;;;;;;;;;;5026798;28;20358;-54
2022/01/16 02:49:18;;;;;;;28.57;18.57;;;;;;;;;;5030729;28;20296;-53
2022/01/16 02:51:44;;;;;;;27.70;18.80;;;;;;;;;;5024026;28;20330;-54
2022/01/16 02:54:09;;;;;;;28.50;19.37;;;;;;;;;;5026136;28;20255;-54
2022/01/16 02:56:35;;;;;;;27.43;19.40;;;;;;;;;;5025568;28;20228;-54
2022/01/16 02:59:02;;;;;;;28.20;18.73;;;;;;;;;;5022534;28;20232;-54
2022/01/16 03:01:27;;;;;;;27.90;19.03;;;;;;;;;;5019816;28;20266;-54
2022/01/16 03:03:53;;;;;;;25.90;18.20;;;;;;;;;;5020910;28;20323;-53
2022/01/16 03:06:19;;;;;;;31.30;19.83;;;;;;;;;;5019071;28;20223;-54
2022/01/16 03:08:45;;;;;;;32.23;20.17;;;;;;;;;;5030174;28;20232;-54
2022/01/16 03:13:41;;;;;;;29.63;19.90;;;;;;;;;;5009664;28;20248;-54
2022/01/16 03:16:07;;;;;;;30.80;19.50;;;;;;;;;;5029153;28;20247;-54
2022/01/16 03:24:03;;;;;;;30.50;20.50;;;;;;;;;;5021155;28;20278;-54
2022/01/16 03:26:29;;;;;;;30.60;20.47;;;;;;;;;;5027281;28;20571;-54
2022/01/16 03:28:55;;;;;;;31.10;21.20;;;;;;;;;;5030500;28;20231;-54
2022/01/16 03:31:21;;;;;;;35.43;21.40;;;;;;;;;;5024139;28;20367;-54
2022/01/16 03:33:47;;;;;;;31.93;20.83;;;;;;;;;;5034372;28;20232;-54
2022/01/16 03:36:13;;;;;;;32.10;22.10;;;;;;;;;;5021112;28;20648;-54
2022/01/16 03:38:39;;;;;;;39.13;23.30;;;;;;;;;;5030771;28;20957;-54
2022/01/16 03:41:05;;;;;;;34.63;22.77;;;;;;;;;;5026175;28;20273;-53
2022/01/16 03:43:31;;;;;;;43.70;26.17;;;;;;;;;;5027720;28;20255;-54
2022/01/16 03:45:57;;;;;;;44.23;26.73;;;;;;;;;;5030654;28;20293;-54
2022/01/16 03:48:22;;;;;;;40.30;26.07;;;;;;;;;;5024131;28;20255;-54
2022/01/16 03:50:48;;;;;;;44.80;26.10;;;;;;;;;;5027632;28;20429;-54
2022/01/16 03:53:16;;;;;;;40.37;26.07;;;;;;;;;;5037747;28;20285;-54
2022/01/16 03:55:42;;;;;;;46.90;27.00;;;;;;;;;;5033044;28;20235;-54
2022/01/16 03:58:08;;;;;;;44.40;27.20;;;;;;;;;;5035471;28;20294;-54
2022/01/16 04:00:34;;;;;;;46.87;27.90;;;;;;;;;;5028604;28;20232;-54
2022/01/16 04:03:00;;;;;;;45.27;27.27;;;;;;;;;;5033016;28;20246;-54
2022/01/16 04:05:26;;;;;;;46.60;28.23;;;;;;;;;;5038419;28;27154;-52
2022/01/16 04:07:52;;;;;;;43.67;27.93;;;;;;;;;;5037871;28;20235;-54
2022/01/16 04:10:20;;;;;;;47.00;27.93;;;;;;;;;;5036085;28;20782;-53
2022/01/16 04:12:47;;;;;;;48.27;28.50;;;;;;;;;;5028191;28;20259;-53
2022/01/16 04:17:39;;;;;;;48.93;29.03;;;;;;;;;;5037088;28;20728;-53
2022/01/16 04:20:05;;;;;;;49.43;28.53;;;;;;;;;;5034224;28;20713;-54
2022/01/16 04:22:31;;;;;;;48.17;28.80;;;;;;;;;;5038890;28;20236;-54
2022/01/16 04:24:57;;;;;;;48.90;28.93;;;;;;;;;;5029359;28;20619;-53
2022/01/16 04:27:23;;;;;;;47.27;28.63;;;;;;;;;;4999712;28;20243;-53
2022/01/16 04:29:49;;;;;;;44.47;28.83;;;;;;;;;;5038374;28;20251;-54
2022/01/16 04:32:15;;;;;;;50.33;29.60;;;;;;;;;;5030650;28;20710;-54
2022/01/16 04:34:41;;;;;;;47.87;29.97;;;;;;;;;;5043151;28;20411;-54
2022/01/16 04:37:07;;;;;;;46.97;29.67;;;;;;;;;;5041142;28;20242;-54
2022/01/16 04:39:35;;;;;;;49.03;29.10;;;;;;;;;;5028966;28;20774;-54
2022/01/16 04:44:46;;;;;;;47.00;29.00;;;;;;;;;;5033334;28;22273;-53
2022/01/16 04:47:12;;;;;;;45.87;28.63;;;;;;;;;;5040441;28;20235;-54
2022/01/16 04:49:38;;;;;;;44.53;29.50;;;;;;;;;;5033405;28;20225;-53
2022/01/16 04:52:04;;;;;;;42.37;28.70;;;;;;;;;;5028100;28;20227;-53
2022/01/16 04:54:31;;;;;;;54.17;29.87;;;;;;;;;;5010264;28;20240;-54
2022/01/16 04:56:57;;;;;;;50.37;30.90;;;;;;;;;;5036101;28;20227;-54
2022/01/16 04:59:23;;;;;;;47.83;29.30;;;;;;;;;;5030051;28;20861;-54
2022/01/16 05:01:51;;;;;;;47.33;29.43;;;;;;;;;;5029604;28;20288;-54
2022/01/16 05:04:17;;;;;;;45.87;29.30;;;;;;;;;;5032644;28;20620;-54
2022/01/16 05:06:43;;;;;;;47.07;30.00;;;;;;;;;;5034401;28;20259;-53
2022/01/16 05:09:09;;;;;;;45.23;29.63;;;;;;;;;;5029321;28;20228;-54
2022/01/16 05:11:34;;;;;;;47.23;29.33;;;;;;;;;;5037857;28;20263;-54
2022/01/16 05:16:40;;;;;;;49.80;30.20;;;;;;;;;;5039371;28;20734;-54
2022/01/16 05:19:09;;;;;;;45.13;28.83;;;;;;;;;;5034604;28;20709;-53
2022/01/16 05:21:36;;;;;;;45.10;28.80;;;;;;;;;;5035745;28;20216;-54
2022/01/16 05:24:05;;;;;;;50.50;29.17;;;;;;;;;;5036322;28;20232;-54
2022/01/16 05:26:34;;;;;;;46.80;29.23;;;;;;;;;;5034600;28;20266;-54
2022/01/16 05:29:00;;;;;;;47.27;29.47;;;;;;;;;;5034074;28;20259;-54
2022/01/16 05:31:26;;;;;;;45.07;29.63;;;;;;;;;;5034941;28;20232;-53
2022/01/16 05:33:52;;;;;;;41.90;28.60;;;;;;;;;;5039149;28;20729;-54
2022/01/16 05:36:21;;;;;;;52.27;31.37;;;;;;;;;;5036123;28;20672;-53
2022/01/16 05:38:47;;;;;;;43.03;28.97;;;;;;;;;;5038159;28;20898;-54
2022/01/16 05:41:13;;;;;;;45.77;28.60;;;;;;;;;;5031738;28;20231;-54
2022/01/16 05:43:39;;;;;;;50.17;31.77;;;;;;;;;;5037406;28;21127;-54
2022/01/16 05:46:05;;;;;;;47.90;30.03;;;;;;;;;;5039942;28;20266;-54
2022/01/16 05:48:31;;;;;;;45.20;29.40;;;;;;;;;;5027077;28;20993;-54
2022/01/16 05:50:57;;;;;;;50.03;30.53;;;;;;;;;;5027568;28;20370;-54
2022/01/16 05:53:23;;;;;;;49.97;30.97;;;;;;;;;;5035557;28;21662;-53
2022/01/16 05:55:49;;;;;;;46.80;29.37;;;;;;;;;;5033619;28;20232;-54
2022/01/16 05:58:15;;;;;;;48.33;30.53;;;;;;;;;;5039242;28;20745;-53
2022/01/16 06:00:41;;;;;;;45.50;30.27;;;;;;;;;;5037381;28;20824;-54
2022/01/16 06:03:09;;;;;;;47.50;30.77;;;;;;;;;;5032658;28;20261;-54
2022/01/16 06:05:35;;;;;;;47.47;29.53;;;;;;;;;;5026836;28;20244;-54
2022/01/16 06:08:07;;;;;;;49.27;30.63;;;;;;;;;;5036416;28;20231;-54
2022/01/16 06:10:33;;;;;;;48.63;31.37;;;;;;;;;;5036377;28;20243;-54
2022/01/16 06:12:59;;;;;;;50.70;31.33;;;;;;;;;;5019668;28;20235;-54
2022/01/16 06:15:25;;;;;;;50.63;30.07;;;;;;;;;;5038907;28;20590;-53
2022/01/16 06:17:51;;;;;;;48.47;30.20;;;;;;;;;;5034098;28;20326;-54
2022/01/16 06:20:17;;;;;;;45.80;30.07;;;;;;;;;;5038297;28;20216;-54
2022/01/16 06:22:43;;;;;;;49.30;31.57;;;;;;;;;;5047804;28;20239;-53
2022/01/16 06:25:09;;;;;;;50.23;31.77;;;;;;;;;;5034971;28;20386;-54
2022/01/16 06:27:35;;;;;;;48.27;30.90;;;;;;;;;;5036096;28;20231;-54
2022/01/16 06:30:02;;;;;;;51.57;31.87;;;;;;;;;;5027574;28;20235;-53
2022/01/16 06:32:28;;;;;;;46.10;29.57;;;;;;;;;;5040461;28;20705;-53
2022/01/16 06:34:54;;;;;;;49.13;30.10;;;;;;;;;;5033075;28;20239;-54
2022/01/16 06:37:20;;;;;;;49.93;30.63;;;;;;;;;;5034468;28;20238;-54
2022/01/16 06:39:46;;;;;;;45.77;31.07;;;;;;;;;;5037147;28;20251;-54
2022/01/16 06:42:12;;;;;;;55.20;33.03;;;;;;;;;;5035131;28;20235;-54
2022/01/16 06:44:38;;;;;;;51.43;32.37;;;;;;;;;;5041897;28;20550;-54
2022/01/16 06:47:04;;;;;;;52.10;32.13;;;;;;;;;;5036562;28;20325;-54
2022/01/16 06:49:30;;;;;;;51.23;33.10;;;;;;;;;;5044024;28;20227;-54
2022/01/16 06:51:56;;;;;;;54.97;32.77;;;;;;;;;;5037266;28;20281;-54
2022/01/16 06:54:22;;;;;;;51.57;32.00;;;;;;;;;;5034777;28;20276;-54
2022/01/16 06:56:48;;;;;;;52.03;32.13;;;;;;;;;;5040849;28;20697;-54
2022/01/16 06:59:14;;;;;;;53.27;31.73;;;;;;;;;;5048268;28;20646;-53
2022/01/16 07:01:40;;;;;;;52.77;32.13;;;;;;;;;;5037455;28;20325;-54
2022/01/16 07:04:06;;;;;;;49.10;31.37;;;;;;;;;;5024535;28;20239;-54
2022/01/16 07:06:32;;;;;;;48.43;32.03;;;;;;;;;;5032573;28;20235;-53
2022/01/16 07:08:58;;;;;;;51.93;31.40;;;;;;;;;;5042000;28;20232;-54
2022/01/16 07:11:24;;;;;;;49.80;31.80;;;;;;;;;;5034774;28;20261;-54
2022/01/16 07:13:50;;;;;;;50.73;32.57;;;;;;;;;;5036326;28;20317;-54
2022/01/16 07:16:15;;;;;;;48.53;30.83;;;;;;;;;;5032248;28;20234;-53
2022/01/16 07:18:41;;;;;;;51.00;32.20;;;;;;;;;;5030783;28;20261;-54
2022/01/16 07:21:13;;;;;;;50.97;32.67;;;;;;;;;;5028518;28;20232;-53
2022/01/16 07:23:40;;;;;;;50.93;32.10;;;;;;;;;;5025060;28;20252;-53
2022/01/16 07:26:06;;;;;;;49.07;32.30;;;;;;;;;;5033910;28;20716;-54
2022/01/16 07:28:32;;;;;;;47.00;32.10;;;;;;;;;;5043921;28;20323;-54
2022/01/16 07:30:58;;;;;;;52.67;33.57;;;;;;;;;;5036135;27;20390;-53
2022/01/16 07:33:24;;;;;;;49.40;32.87;;;;;;;;;;5024573;28;20709;-54
2022/01/16 07:35:50;;;;;;;51.97;32.80;;;;;;;;;;5029568;28;20281;-54
2022/01/16 07:38:16;;;;;;;46.90;29.97;;;;;;;;;;5027271;28;20481;-54
2022/01/16 07:40:42;;;;;;;52.73;31.73;;;;;;;;;;5029826;28;20224;-54
2022/01/16 07:43:08;;;;;;;51.67;32.80;;;;;;;;;;5028220;28;20323;-54
2022/01/16 07:45:34;;;;;;;54.13;33.40;;;;;;;;;;5030436;28;20446;-54
2022/01/16 07:48:00;;;;;;;51.40;33.70;;;;;;;;;;5020591;28;20263;-54
2022/01/16 07:50:26;;;;;;;50.00;33.63;;;;;;;;;;5026535;28;20760;-54
2022/01/16 07:52:52;;;;;;;51.90;33.93;;;;;;;;;;5035657;28;20261;-53
2022/01/16 07:55:22;;;;;;;51.33;33.63;;;;;;;;;;5032394;28;20223;-54
2022/01/16 07:57:49;;;;;;;53.50;34.60;;;;;;;;;;5033538;28;20563;-53
2022/01/16 08:00:15;;;;;;;52.70;32.97;;;;;;;;;;5020948;28;20379;-53
2022/01/16 08:02:41;;;;;;;49.57;32.13;;;;;;;;;;5035312;28;20271;-54
2022/01/16 08:05:07;;;;;;;52.17;34.87;;;;;;;;;;5036649;28;20335;-54
2022/01/16 08:07:33;;;;;;;49.37;32.77;;;;;;;;;;5038726;28;20338;-54
2022/01/16 08:09:59;;;;;;;49.07;32.40;;;;;;;;;;5031308;28;20223;-53
2022/01/16 08:12:25;;;;;;;46.90;31.90;;;;;;;;;;5025462;28;20571;-54
2022/01/16 08:14:51;;;;;;;53.73;33.23;;;;;;;;;;5032633;28;20246;-54
2022/01/16 08:17:17;;;;;;;51.40;34.13;;;;;;;;;;5035400;28;20271;-54
2022/01/16 08:19:42;;;;;;;49.63;33.93;;;;;;;;;;5035418;28;20235;-54
2022/01/16 08:22:10;;;;;;;50.23;33.57;;;;;;;;;;5031099;28;20254;-54
2022/01/16 08:24:36;;;;;;;48.07;33.17;;;;;;;;;;5029801;28;20237;-54
2022/01/16 08:27:02;;;;;;;54.17;32.83;;;;;;;;;;5035549;28;20530;-54
2022/01/16 08:29:28;;;;;;;52.13;32.13;;;;;;;;;;5034909;28;20231;-54
2022/01/16 08:31:54;;;;;;;51.03;33.57;;;;;;;;;;5036470;28;20239;-53
2022/01/16 08:34:20;;;;;;;50.50;31.87;;;;;;;;;;5025802;28;20365;-54
2022/01/16 08:36:46;;;;;;;53.43;32.90;;;;;;;;;;5028347;28;20618;-54
2022/01/16 08:39:14;;;;;;;50.87;32.33;;;;;;;;;;5036809;28;20274;-53
2022/01/16 08:41:40;;;;;;;50.73;32.60;;;;;;;;;;5029818;28;21407;-54
2022/01/16 08:44:06;;;;;;;52.97;31.43;;;;;;;;;;5036015;28;20731;-54
2022/01/16 08:46:32;;;;;;;52.23;32.13;;;;;;;;;;5037752;28;20526;-54
2022/01/16 08:48:58;;;;;;;46.67;31.37;;;;;;;;;;5038341;28;20326;-54
2022/01/16 08:51:24;;;;;;;47.73;32.10;;;;;;;;;;5039590;28;20983;-53
2022/01/16 08:53:50;;;;;;;49.30;31.90;;;;;;;;;;5034809;28;20230;-54
2022/01/16 08:56:16;;;;;;;51.30;31.87;;;;;;;;;;5039756;28;20604;-53
2022/01/16 08:58:42;;;;;;;48.97;31.93;;;;;;;;;;5032639;28;20250;-54
2022/01/16 09:01:08;;;;;;;50.43;30.33;;;;;;;;;;5035586;28;20253;-54
2022/01/16 09:03:34;;;;;;;50.30;31.23;;;;;;;;;;5033336;28;20343;-53
2022/01/16 09:06:00;;;;;;;50.87;32.27;;;;;;;;;;5038046;28;20943;-54
2022/01/16 09:08:26;;;;;;;47.47;30.90;;;;;;;;;;5034689;28;20235;-54
2022/01/16 09:10:52;;;;;;;46.27;29.63;;;;;;;;;;5025016;28;21149;-54
2022/01/16 09:13:18;;;;;;;50.77;30.07;;;;;;;;;;5029934;28;20667;-54
2022/01/16 09:15:44;;;;;;;47.33;29.17;;;;;;;;;;5035097;28;20285;-54
2022/01/16 09:18:10;;;;;;;46.20;29.07;;;;;;;;;;5034455;28;21900;-53
2022/01/16 09:20:36;;;;;;;46.20;29.40;;;;;;;;;;5031349;28;20234;-54
2022/01/16 09:23:02;;;;;;;46.23;29.23;;;;;;;;;;5034439;28;20239;-53
2022/01/16 09:25:28;;;;;;;46.63;28.23;;;;;;;;;;5034925;28;20261;-54
2022/01/16 09:27:54;;;;;;;46.73;27.70;;;;;;;;;;5042283;28;20234;-53
2022/01/16 09:30:21;;;;;;;43.47;27.47;;;;;;;;;;5028251;28;20246;-54
2022/01/16 09:32:47;;;;;;;44.50;28.50;;;;;;;;;;5037529;28;20236;-54
2022/01/16 09:35:13;;;;;;;43.50;27.37;;;;;;;;;;5038109;28;20673;-54
2022/01/16 09:37:39;;;;;;;44.60;26.93;;;;;;;;;;5043297;28;20240;-53
2022/01/16 09:40:05;;;;;;;40.03;26.90;;;;;;;;;;5038175;28;20227;-54
2022/01/16 09:42:31;;;;;;;40.17;26.07;;;;;;;;;;5037517;28;20298;-53
2022/01/16 09:44:57;;;;;;;39.97;25.53;;;;;;;;;;5032738;28;20249;-54
2022/01/16 09:47:23;;;;;;;44.37;27.93;;;;;;;;;;5020716;28;20727;-53
2022/01/16 09:49:49;;;;;;;44.97;26.67;;;;;;;;;;5026708;28;20724;-54
2022/01/16 09:52:15;;;;;;;41.47;26.60;;;;;;;;;;5019505;28;20235;-53
2022/01/16 09:54:41;;;;;;;42.63;26.20;;;;;;;;;;5010804;28;20575;-54
2022/01/16 09:57:07;;;;;;;38.70;25.70;;;;;;;;;;5011383;28;20888;-54
2022/01/16 09:59:35;;;;;;;38.83;25.27;;;;;;;;;;5015400;28;20235;-54
2022/01/16 10:02:02;;;;;;;43.43;25.73;;;;;;;;;;5012474;28;21732;-52
2022/01/16 10:04:30;;;;;;;41.57;25.90;;;;;;;;;;5009464;28;20271;-53
2022/01/16 10:06:57;;;;;;;39.60;26.10;;;;;;;;;;5010530;28;20243;-54
2022/01/16 10:09:23;;;;;;;38.00;25.00;;;;;;;;;;5014393;28;20232;-53
2022/01/16 10:11:59;;;;;;;41.50;26.53;;;;;;;;;;5007059;28;20318;-54
2022/01/16 10:14:33;;;;;;;43.00;26.17;;;;;;;;;;5021703;28;20306;-54
2022/01/16 10:16:59;;;;;;;44.17;26.23;;;;;;;;;;5006080;28;20246;-54
2022/01/16 10:19:28;;;;;;;45.33;26.60;;;;;;;;;;5010762;28;20244;-54
2022/01/16 10:21:55;;;;;;;44.70;26.47;;;;;;;;;;5015124;28;20286;-54
2022/01/16 10:24:22;;;;;;;42.87;26.03;;;;;;;;;;5005445;28;20289;-54
2022/01/16 10:26:48;;;;;;;47.20;28.27;;;;;;;;;;5007750;28;20230;-53
2022/01/16 10:29:18;;;;;;;42.97;27.03;;;;;;;;;;5018271;28;21004;-54
2022/01/16 10:31:44;;;;;;;43.17;26.03;;;;;;;;;;5018873;28;20255;-54
2022/01/16 10:34:31;;;;;;;44.20;26.40;;;;;;;;;;5009642;28;20255;-54
2022/01/16 10:36:58;;;;;;;42.30;26.37;;;;;;;;;;5010625;28;20246;-53
2022/01/16 10:39:24;;;;;;;41.23;26.57;;;;;;;;;;5012586;28;20791;-54
2022/01/16 10:42:09;;;;;;;45.33;27.57;;;;;;;;;;5015375;28;20231;-54
2022/01/16 10:44:35;;;;;;;44.07;27.70;;;;;;;;;;5011083;28;20238;-54
2022/01/16 10:47:21;;;;;;;45.87;27.30;;;;;;;;;;5021011;28;26826;-52
2022/01/16 10:50:06;;;;;;;41.33;25.07;;;;;;;;;;5029183;28;20235;-52
2022/01/16 10:52:32;;;;;;;47.00;26.93;;;;;;;;;;5037332;28;20712;-52
2022/01/16 10:55:08;;;;;;;44.07;26.23;;;;;;;;;;5024418;28;21953;-52
2022/01/16 10:57:34;;;;;;;45.47;26.97;;;;;;;;;;5022844;28;20218;-52
2022/01/16 11:00:04;;;;;;;48.80;28.13;;;;;;;;;;5034268;28;20249;-52
2022/01/16 11:02:30;;;;;;;47.33;28.60;;;;;;;;;;5035823;28;20663;-52
2022/01/16 11:05:15;;;;;;;42.10;27.03;;;;;;;;;;5034775;28;20227;-52
2022/01/16 11:07:42;;;;;;;46.40;28.20;;;;;;;;;;5029524;28;20721;-52
2022/01/16 11:10:26;;;;;;;51.77;28.40;;;;;;;;;;5030136;28;20845;-53
2022/01/16 11:12:52;;;;;;;48.37;28.57;;;;;;;;;;5028844;28;20370;-52
2022/01/16 11:15:18;;;;;;;48.47;28.63;;;;;;;;;;5039031;28;20231;-52
2022/01/16 11:17:44;;;;;;;50.17;27.80;;;;;;;;;;5044009;28;25164;-53
2022/01/16 11:20:10;;;;;;;43.77;26.10;;;;;;;;;;5037248;28;20231;-52
2022/01/16 11:22:56;;;;;;;51.23;29.10;;;;;;;;;;5035145;28;21148;-52
2022/01/16 11:25:30;;;;;;;51.40;29.90;;;;;;;;;;5032858;28;21440;-53
2022/01/16 11:27:56;;;;;;;46.07;26.77;;;;;;;;;;5026247;28;20573;-53
2022/01/16 11:30:22;;;;;;;48.80;26.73;;;;;;;;;;5027888;28;20652;-52
2022/01/16 11:32:48;;;;;;;49.37;27.40;;;;;;;;;;5038958;28;20778;-51
2022/01/16 11:35:14;;;;;;;50.37;28.40;;;;;;;;;;5026250;28;20239;-52
2022/01/16 11:37:40;;;;;;;47.40;28.37;;;;;;;;;;5012111;28;20234;-52
2022/01/16 11:40:44;;;;;;;47.67;27.90;;;;;;;;;;5024539;28;20235;-52
2022/01/16 11:43:11;;;;;;;48.33;27.70;;;;;;;;;;4941019;28;20246;-52
2022/01/16 11:45:47;;;;;;;44.83;26.27;;;;;;;;;;5023025;28;20297;-52
2022/01/16 11:48:13;;;;;;;43.03;26.60;;;;;;;;;;5029336;28;20238;-53
2022/01/16 11:50:39;;;;;;;45.67;26.33;;;;;;;;;;5027409;28;20235;-53
2022/01/16 11:53:05;;;;;;;45.50;27.47;;;;;;;;;;5022430;28;20651;-55
2022/01/16 11:55:34;;;;;;;45.70;27.77;;;;;;;;;;5012988;28;20263;-55
2022/01/16 11:58:01;;;;;;;44.07;26.93;;;;;;;;;;5018856;28;20234;-54
2022/01/16 12:00:42;;;;;;;44.93;24.93;;;;;;;;;;5015153;28;20236;-55
2022/01/16 12:03:07;;;;;;;41.70;25.00;;;;;;;;;;5028705;28;20239;-55
2022/01/16 12:05:33;;;;;;;37.57;23.13;;;;;;;;;;5033831;28;20637;-55
2022/01/16 12:08:08;;;;;;;34.50;22.87;;;;;;;;;;5032703;28;20269;-55
2022/01/16 12:10:35;;;;;;;36.00;23.47;;;;;;;;;;5043258;28;21294;-55
2022/01/16 12:13:01;;;;;;;35.00;22.80;;;;;;;;;;5038242;28;20228;-55
2022/01/16 12:15:28;;;;;;;33.97;21.57;;;;;;;;;;5033288;28;20236;-55
2022/01/16 12:17:54;;;;;;;32.80;21.27;;;;;;;;;;5041324;28;20232;-55
2022/01/16 12:20:25;;;;;;;33.53;21.73;;;;;;;;;;5043252;28;20293;-54
2022/01/16 12:22:55;;;;;;;32.73;21.30;;;;;;;;;;5031487;28;20507;-55
2022/01/16 12:25:40;;;;;;;33.73;21.67;;;;;;;;;;5033298;28;20244;-55
2022/01/16 12:28:06;;;;;;;37.30;21.80;;;;;;;;;;5039190;28;20251;-55
2022/01/16 12:30:52;;;;;;;27.37;19.67;;;;;;;;;;5041340;28;20227;-55
2022/01/16 12:33:31;;;;;;;32.00;20.87;;;;;;;;;;5018882;28;20538;-55
2022/01/16 12:36:00;;;;;;;31.33;20.40;;;;;;;;;;5019258;28;20306;-55
2022/01/16 12:38:32;;;;;;;30.43;20.70;;;;;;;;;;5039063;28;21533;-55
2022/01/16 12:41:02;;;;;;;31.43;20.27;;;;;;;;;;5017733;28;20264;-55
2022/01/16 12:43:31;;;;;;;29.83;19.97;;;;;;;;;;5037087;28;20305;-54
2022/01/16 12:45:58;;;;;;;28.10;19.43;;;;;;;;;;5038518;28;20278;-55
2022/01/16 12:48:24;;;;;;;28.83;19.90;;;;;;;;;;5028261;28;20284;-55
2022/01/16 12:50:51;;;;;;;29.33;19.97;;;;;;;;;;5027595;28;20665;-55
2022/01/16 12:53:36;;;;;;;30.83;19.27;;;;;;;;;;5022721;28;20271;-55
2022/01/16 12:56:15;;;;;;;29.77;19.53;;;;;;;;;;5020215;28;20228;-55
2022/01/16 12:58:41;;;;;;;29.60;19.10;;;;;;;;;;5032440;28;20759;-54
2022/01/16 13:01:07;;;;;;;27.03;19.93;;;;;;;;;;5025944;28;20681;-55
2022/01/16 13:03:33;;;;;;;27.80;19.73;;;;;;;;;;5017981;28;20562;-54
2022/01/16 13:06:18;;;;;;;30.93;19.30;;;;;;;;;;5020221;28;20230;-55
2022/01/16 13:08:54;;;;;;;29.53;20.17;;;;;;;;;;5009855;28;20713;-55
2022/01/16 13:11:20;;;;;;;28.37;19.57;;;;;;;;;;5019238;28;20239;-55
2022/01/16 13:13:47;;;;;;;30.40;18.73;;;;;;;;;;5011562;28;20894;-55
2022/01/16 13:16:19;;;;;;;27.93;18.93;;;;;;;;;;5011383;28;20240;-55
2022/01/16 13:18:59;;;;;;;25.97;17.47;;;;;;;;;;5017286;28;20737;-55
2022/01/16 13:21:32;;;;;;;25.70;18.30;;;;;;;;;;5005905;28;20375;-55
2022/01/16 13:23:58;;;;;;;27.33;18.10;;;;;;;;;;5016288;28;20243;-55
2022/01/16 13:26:25;;;;;;;27.27;18.37;;;;;;;;;;5017219;28;20224;-54
2022/01/16 13:28:59;;;;;;;26.40;17.60;;;;;;;;;;5038130;28;20289;-56
2022/01/16 13:31:25;;;;;;;24.13;17.10;;;;;;;;;;5023519;28;20916;-56
2022/01/16 13:34:10;;;;;;;24.80;17.70;;;;;;;;;;5017505;28;20243;-55
2022/01/16 13:36:36;;;;;;;25.67;16.87;;;;;;;;;;5036933;28;20236;-55
2022/01/16 13:39:02;;;;;;;25.87;17.07;;;;;;;;;;5035626;28;20281;-54
2022/01/16 13:41:29;;;;;;;25.60;16.73;;;;;;;;;;5036063;28;20333;-55
2022/01/16 13:43:54;;;;;;;24.57;17.50;;;;;;;;;;5037359;28;20301;-55
2022/01/16 13:46:20;;;;;;;24.93;17.63;;;;;;;;;;5041575;28;20329;-56
2022/01/16 13:48:47;;;;;;;24.97;17.17;;;;;;;;;;5041213;28;20255;-55
2022/01/16 13:51:13;;;;;;;25.20;17.03;;;;;;;;;;5045202;28;20241;-55
2022/01/16 13:53:40;;;;;;;25.63;17.50;;;;;;;;;;5023095;28;20235;-55
2022/01/16 13:56:13;;;;;;;24.60;17.47;;;;;;;;;;5034534;28;20232;-55
2022/01/16 13:58:43;;;;;;;25.20;17.23;;;;;;;;;;5048840;28;20321;-55
2022/01/16 14:01:16;;;;;;;25.10;17.80;;;;;;;;;;5045206;28;20231;-55
2022/01/16 14:03:48;;;;;;;25.50;17.73;;;;;;;;;;5032121;28;20232;-55
2022/01/16 14:06:17;;;;;;;23.27;17.00;;;;;;;;;;5034711;28;20242;-55
2022/01/16 14:08:50;;;;;;;27.73;18.17;;;;;;;;;;5027909;28;21682;-55
2022/01/16 14:11:18;;;;;;;27.03;16.73;;;;;;;;;;5025903;28;20235;-56
2022/01/16 14:13:47;;;;;;;24.57;16.77;;;;;;;;;;5018123;28;20228;-55
2022/01/16 14:16:13;;;;;;;27.20;17.20;;;;;;;;;;5016140;28;20691;-55
2022/01/16 14:18:52;;;;;;;26.20;17.03;;;;;;;;;;5024404;28;23032;-56
2022/01/16 14:24:06;;;;;;;26.50;17.60;;;;;;;;;;5021066;28;20771;-55
2022/01/16 14:26:32;;;;;;;29.13;18.20;;;;;;;;;;5013720;28;20350;-55
2022/01/16 14:28:57;;;;;;;25.07;18.20;;;;;;;;;;5026710;28;20219;-55
2022/01/16 14:31:23;;;;;;;27.13;17.57;;;;;;;;;;5005550;28;20787;-55
2022/01/16 14:33:51;;;;;;;27.97;18.67;;;;;;;;;;5005076;28;20251;-55
2022/01/16 14:36:17;;;;;;;25.37;17.97;;;;;;;;;;4997616;28;21779;-55
2022/01/16 14:38:43;;;;;;;28.70;18.77;;;;;;;;;;5009008;28;20222;-55
2022/01/16 14:41:12;;;;;;;28.33;18.10;;;;;;;;;;5031888;28;20235;-55
2022/01/16 14:43:57;;;;;;;28.10;18.80;;;;;;;;;;5040171;28;20284;-56
2022/01/16 14:46:24;;;;;;;26.93;18.00;;;;;;;;;;5020869;28;20232;-55
2022/01/16 14:48:50;;;;;;;27.53;17.27;;;;;;;;;;5029117;28;20223;-55
2022/01/16 14:51:16;;;;;;;26.10;17.33;;;;;;;;;;5039071;28;20241;-55
2022/01/16 14:53:42;;;;;;;24.73;17.40;;;;;;;;;;5034739;28;21486;-55
2022/01/16 14:56:08;;;;;;;23.53;16.30;;;;;;;;;;5042285;28;20266;-55
2022/01/16 14:58:34;;;;;;;26.47;16.53;;;;;;;;;;5038340;28;20818;-55
2022/01/16 15:01:00;;;;;;;26.90;16.93;;;;;;;;;;5030851;28;20290;-54
2022/01/16 15:03:26;;;;;;;24.60;16.03;;;;;;;;;;5021566;28;20239;-55
2022/01/16 15:05:52;;;;;;;23.90;16.60;;;;;;;;;;5008904;28;20688;-55
2022/01/16 15:08:18;;;;;;;22.47;15.67;;;;;;;;;;5022434;28;20246;-55
2022/01/16 15:10:44;;;;;;;26.20;16.50;;;;;;;;;;5017934;28;20721;-55